sensor_id;sensor_type;location;lat;lon;timestamp;pressure;altitude;pressure_sealevel;temperature;humidity
53671;BME280;39571;48.612;8.088;2023-03-01T09:20:05;100358.41;;;8.93;70.58
53671;BME280;39571;48.612;8.088;2023-03-01T09:22:33;100359.38;;;9.63;73.23
53671;BME280;39571;48.612;8.088;2023-03-01T09:27:16;100341.88;;;10.29;67.39
53671;BME280;39571;48.612;8.088;2023-03-01T09:46:48;100320.75;;;12.70;51.54
53671;BME280;39571;48.612;8.088;2023-03-01T09:49:17;100322.03;;;13.04;50.96
53671;BME280;39571;48.612;8.088;2023-03-01T09:57:19;100311.56;;;13.02;48.79
53671;BME280;39571;48.612;8.088;2023-03-01T10:05:05;100315.19;;;14.02;44.72
53671;BME280;39571;48.612;8.088;2023-03-01T10:08:06;100306.34;;;14.05;44.81
53671;BME280;39571;48.612;8.088;2023-03-01T10:10:43;100300.63;;;14.29;44.56
53671;BME280;39571;48.612;8.088;2023-03-01T10:13:20;100291.00;;;13.81;44.08
53671;BME280;39571;48.612;8.088;2023-03-01T10:16:03;100289.13;;;13.89;44.25
53671;BME280;39571;48.612;8.088;2023-03-01T10:18:32;100292.06;;;13.72;45.03
53671;BME280;39571;48.612;8.088;2023-03-01T10:21:01;100293.91;;;14.13;44.23
53671;BME280;39571;48.612;8.088;2023-03-01T10:23:30;100290.38;;;14.14;43.55
53671;BME280;39571;48.612;8.088;2023-03-01T10:26:21;100286.38;;;13.95;43.91
53671;BME280;39571;48.612;8.088;2023-03-01T10:29:02;100291.59;;;14.42;43.41
53671;BME280;39571;48.612;8.088;2023-03-01T10:31:39;100285.50;;;14.82;42.61
53671;BME280;39571;48.612;8.088;2023-03-01T10:34:16;100280.69;;;14.99;42.27
53671;BME280;39571;48.612;8.088;2023-03-01T10:36:45;100274.25;;;15.12;41.65
53671;BME280;39571;48.612;8.088;2023-03-01T10:39:18;100270.78;;;14.72;41.39
53671;BME280;39571;48.612;8.088;2023-03-01T10:44:43;100267.16;;;12.83;44.02
53671;BME280;39571;48.612;8.088;2023-03-01T10:47:23;100269.91;;;12.06;46.50
53671;BME280;39571;48.612;8.088;2023-03-01T10:50:21;100267.13;;;11.30;49.33
53671;BME280;39571;48.612;8.088;2023-03-01T10:53:04;100275.53;;;10.51;50.47
53671;BME280;39571;48.612;8.088;2023-03-01T10:55:36;100276.59;;;9.84;52.29
53671;BME280;39571;48.612;8.088;2023-03-01T10:58:21;100263.59;;;9.44;54.81
53671;BME280;39571;48.612;8.088;2023-03-01T11:03:18;100259.22;;;8.93;60.45
53671;BME280;39571;48.612;8.088;2023-03-01T11:08:40;100247.84;;;8.56;64.46
53671;BME280;39571;48.612;8.088;2023-03-01T11:11:16;100246.94;;;8.48;66.10
53671;BME280;39571;48.612;8.088;2023-03-01T11:13:57;100246.03;;;8.28;66.57
53671;BME280;39571;48.612;8.088;2023-03-01T11:16:29;100242.56;;;8.32;69.12
53671;BME280;39571;48.612;8.088;2023-03-01T11:19:00;100240.75;;;8.19;68.88
53671;BME280;39571;48.612;8.088;2023-03-01T11:21:31;100232.09;;;8.23;70.15
53671;BME280;39571;48.612;8.088;2023-03-01T11:24:00;100229.47;;;8.23;71.25
53671;BME280;39571;48.612;8.088;2023-03-01T11:26:28;100225.97;;;8.24;74.02
53671;BME280;39571;48.612;8.088;2023-03-01T11:28:56;100221.63;;;8.22;73.51
53671;BME280;39571;48.612;8.088;2023-03-01T11:31:24;100214.69;;;8.19;74.98
53671;BME280;39571;48.612;8.088;2023-03-01T11:34:23;100218.97;;;8.02;73.85
53671;BME280;39571;48.612;8.088;2023-03-01T11:36:56;100214.59;;;8.01;74.67
53671;BME280;39571;48.612;8.088;2023-03-01T11:39:40;100208.50;;;7.93;76.37
53671;BME280;39571;48.612;8.088;2023-03-01T11:42:17;100195.53;;;8.08;77.02
53671;BME280;39571;48.612;8.088;2023-03-01T11:44:43;100192.03;;;8.03;76.34
53671;BME280;39571;48.612;8.088;2023-03-01T11:55:31;100187.72;;;8.06;74.42
53671;BME280;39571;48.612;8.088;2023-03-01T12:01:25;100162.59;;;8.31;76.34
53671;BME280;39571;48.612;8.088;2023-03-01T12:04:14;100166.09;;;8.30;74.24
53671;BME280;39571;48.612;8.088;2023-03-01T12:06:52;100166.88;;;8.25;74.67
53671;BME280;39571;48.612;8.088;2023-03-01T12:12:15;100152.13;;;8.25;75.64
53671;BME280;39571;48.612;8.088;2023-03-01T12:17:54;100154.81;;;8.40;74.32
53671;BME280;39571;48.612;8.088;2023-03-01T12:23:59;100134.81;;;8.59;74.50
53671;BME280;39571;48.612;8.088;2023-03-01T12:26:31;100127.88;;;8.50;74.52
53671;BME280;39571;48.612;8.088;2023-03-01T12:35:05;100113.97;;;8.51;75.18
53671;BME280;39571;48.612;8.088;2023-03-01T12:40:13;100109.59;;;8.47;74.43
53671;BME280;39571;48.612;8.088;2023-03-01T12:48:31;100089.59;;;8.65;74.63
53671;BME280;39571;48.612;8.088;2023-03-01T12:51:07;100101.75;;;8.81;75.68
53671;BME280;39571;48.612;8.088;2023-03-01T12:53:39;100094.81;;;8.74;72.57
53671;BME280;39571;48.612;8.088;2023-03-01T12:56:07;100091.34;;;8.72;72.97
53671;BME280;39571;48.612;8.088;2023-03-01T12:58:46;100088.72;;;8.62;72.92
53671;BME280;39571;48.612;8.088;2023-03-01T13:01:31;100084.38;;;8.65;72.08
53671;BME280;39571;48.612;8.088;2023-03-01T13:04:12;100094.81;;;8.55;73.62
53671;BME280;39571;48.612;8.088;2023-03-01T13:11:56;100064.41;;;8.41;75.23
53671;BME280;39571;48.612;8.088;2023-03-01T13:16:49;100056.56;;;8.45;74.44
53671;BME280;39571;48.612;8.088;2023-03-01T13:19:22;100054.84;;;8.50;74.11
53671;BME280;39571;48.612;8.088;2023-03-01T13:21:50;100052.22;;;8.55;74.98
53671;BME280;39571;48.612;8.088;2023-03-01T13:24:41;100049.59;;;8.56;73.96
53671;BME280;39571;48.612;8.088;2023-03-01T13:29:45;100053.06;;;8.68;75.54
53671;BME280;39571;48.612;8.088;2023-03-01T13:34:47;100039.16;;;8.75;74.83
53671;BME280;39571;48.612;8.088;2023-03-01T13:37:25;100026.97;;;8.78;74.33
53671;BME280;39571;48.612;8.088;2023-03-01T13:39:52;100023.47;;;8.84;74.08
53671;BME280;39571;48.612;8.088;2023-03-01T13:42:38;100022.63;;;8.77;72.59
53671;BME280;39571;48.612;8.088;2023-03-01T13:45:45;100030.44;;;8.82;73.66
53671;BME280;39571;48.612;8.088;2023-03-01T13:48:15;100023.50;;;8.78;72.76
53671;BME280;39571;48.612;8.088;2023-03-01T13:50:51;100030.47;;;8.79;72.92
53671;BME280;39571;48.612;8.088;2023-03-01T13:53:19;100033.06;;;8.82;74.20
53671;BME280;39571;48.612;8.088;2023-03-01T13:56:12;100026.97;;;8.74;72.14
53671;BME280;39571;48.612;8.088;2023-03-01T14:01:36;100013.94;;;8.72;72.07
53671;BME280;39571;48.612;8.088;2023-03-01T14:06:45;100005.25;;;8.70;71.96
53671;BME280;39571;48.612;8.088;2023-03-01T14:09:20;100009.56;;;8.70;72.08
53671;BME280;39571;48.612;8.088;2023-03-01T14:19:33;100004.38;;;8.63;72.41
53671;BME280;39571;48.612;8.088;2023-03-01T14:22:20;100003.50;;;8.55;72.44
53671;BME280;39571;48.612;8.088;2023-03-01T14:24:49;100001.78;;;8.53;74.17
53671;BME280;39571;48.612;8.088;2023-03-01T14:27:16;99999.19;;;8.42;72.29
53671;BME280;39571;48.612;8.088;2023-03-01T14:29:41;99991.38;;;8.36;74.23
53671;BME280;39571;48.612;8.088;2023-03-01T14:32:15;99992.25;;;8.32;75.24
53671;BME280;39571;48.612;8.088;2023-03-01T14:34:49;99990.50;;;8.31;75.61
53671;BME280;39571;48.612;8.088;2023-03-01T14:37:22;99988.78;;;8.36;75.53
53671;BME280;39571;48.612;8.088;2023-03-01T14:39:48;99997.47;;;8.35;77.97
53671;BME280;39571;48.612;8.088;2023-03-01T14:42:14;99995.72;;;8.31;76.35
53671;BME280;39571;48.612;8.088;2023-03-01T14:44:43;99999.19;;;8.29;76.30
53671;BME280;39571;48.612;8.088;2023-03-01T14:47:13;100007.03;;;8.30;77.17
53671;BME280;39571;48.612;8.088;2023-03-01T14:49:40;99992.25;;;8.29;77.83
53671;BME280;39571;48.612;8.088;2023-03-01T14:52:18;99992.22;;;8.26;78.12
53671;BME280;39571;48.612;8.088;2023-03-01T14:54:50;99995.69;;;8.25;78.25
53671;BME280;39571;48.612;8.088;2023-03-01T14:57:21;99991.34;;;8.24;77.56
53671;BME280;39571;48.612;8.088;2023-03-01T14:59:51;100000.91;;;8.22;79.83
53671;BME280;39571;48.612;8.088;2023-03-01T15:02:21;100006.13;;;8.18;79.93
53671;BME280;39571;48.612;8.088;2023-03-01T15:04:49;100006.13;;;8.14;79.02
53671;BME280;39571;48.612;8.088;2023-03-01T15:07:16;99997.44;;;8.08;78.37
53671;BME280;39571;48.612;8.088;2023-03-01T15:09:43;100000.03;;;8.03;78.71
53671;BME280;39571;48.612;8.088;2023-03-01T15:14:52;100014.78;;;7.94;80.06
53671;BME280;39571;48.612;8.088;2023-03-01T15:19:55;100018.25;;;7.85;81.62
53671;BME280;39571;48.612;8.088;2023-03-01T15:22:21;100011.28;;;7.80;82.63
53671;BME280;39571;48.612;8.088;2023-03-01T15:24:49;100007.81;;;7.78;83.88
53671;BME280;39571;48.612;8.088;2023-03-01T15:27:17;100008.69;;;7.77;84.01
53671;BME280;39571;48.612;8.088;2023-03-01T15:29:52;100013.03;;;7.69;83.80
53671;BME280;39571;48.612;8.088;2023-03-01T15:32:25;100016.44;;;7.58;84.92
53671;BME280;39571;48.612;8.088;2023-03-01T15:34:51;100023.41;;;7.56;84.76
53671;BME280;39571;48.612;8.088;2023-03-01T15:37:44;100014.69;;;7.47;85.19
53671;BME280;39571;48.612;8.088;2023-03-01T15:40:21;100030.31;;;7.45;86.72
53671;BME280;39571;48.612;8.088;2023-03-01T15:42:49;100024.22;;;7.43;86.30
53671;BME280;39571;48.612;8.088;2023-03-01T15:47:50;100025.06;;;7.36;87.89
53671;BME280;39571;48.612;8.088;2023-03-01T15:50:22;100035.47;;;7.33;89.16
53671;BME280;39571;48.612;8.088;2023-03-01T15:52:49;100029.41;;;7.33;90.17
53671;BME280;39571;48.612;8.088;2023-03-01T15:55:26;100038.91;;;7.26;89.93
53671;BME280;39571;48.612;8.088;2023-03-01T15:58:03;100041.50;;;7.22;90.71
53671;BME280;39571;48.612;8.088;2023-03-01T16:00:29;100040.63;;;7.21;91.68
53671;BME280;39571;48.612;8.088;2023-03-01T16:02:54;100040.63;;;7.17;90.14
53671;BME280;39571;48.612;8.088;2023-03-01T16:05:29;100035.38;;;7.12;91.85
53671;BME280;39571;48.612;8.088;2023-03-01T16:07:55;100033.59;;;7.05;92.45
53671;BME280;39571;48.612;8.088;2023-03-01T16:10:21;100030.16;;;7.03;93.53
53671;BME280;39571;48.612;8.088;2023-03-01T16:12:47;100024.88;;;6.97;94.22
53671;BME280;39571;48.612;8.088;2023-03-01T16:15:24;100021.41;;;6.92;94.22
53671;BME280;39571;48.612;8.088;2023-03-01T16:17:51;100014.44;;;6.85;94.85
53671;BME280;39571;48.612;8.088;2023-03-01T16:20:17;100022.22;;;6.82;95.56
53671;BME280;39571;48.612;8.088;2023-03-01T16:22:43;100032.59;;;6.76;96.32
53671;BME280;39571;48.612;8.088;2023-03-01T16:25:16;100040.34;;;6.73;96.80
53671;BME280;39571;48.612;8.088;2023-03-01T16:27:43;100047.28;;;6.68;97.97
53671;BME280;39571;48.612;8.088;2023-03-01T16:30:10;100052.44;;;6.62;98.58
53671;BME280;39571;48.612;8.088;2023-03-01T16:32:39;100056.72;;;6.56;98.42
53671;BME280;39571;48.612;8.088;2023-03-01T16:35:06;100054.09;;;6.53;99.30
